Historique des mesures à Cassis (13260), France
Quotidien Résumé Fevrier 9, 2018 Unités:  Métrique    US   Métrique/US
« Précédent (Jour)
Suivant (Jour) »
Quotidien Hebdomadaire Mensuel Annuel Période au choix
  Maximum: Minimum: Moyenne:
Température: TemperatureC °C 2.4 °C 5.1 °C
Point de rosée: DewpointC °C -1.9 °C -0.5 °C
Humidité: Humidity % 56 % 64 %
Vitesse du vent: 0 km/h 0 km/h 6.4 km/h
Rafales: 0 km/h - -
Vent:- - SW
Pression: PressurehPa hPa 1009.7 hPa -
Précipitations: 0 mm    
Historical Graphs
 
 
Mesures pour : Fevrier 9, 2018
Heure Temperature Point de rosée Pression Vent Vitesse du vent Rafales Humidité Pluie (par heure)
TemperatureC °C DewpointC °C PressurehPa hPa Calm     Humidity % 0 mm
00:12 3.5 °C -1.7 °C 1014.4 hPa Calm     69 % 0 mm
01:12 3.2 °C -1.6 °C 1014.4 hPa Calm     71 % 0 mm
02:12 3.0 °C -1.4 °C 1014.1 hPa Calm     73 % 0 mm
03:12 2.8 °C -1.4 °C 1014.1 hPa Calm   4.7 km/h 74 % 0 mm
04:12 2.4 °C -1.8 °C 1013.4 hPa North 9.8 km/h 15 km/h 74 % 0 mm
05:12 2.4 °C -1.8 °C 1013.4 hPa North 10.9 km/h 10.9 km/h 74 % 0 mm
06:12 2.4 °C -1.8 °C 1013.4 hPa NW 2.3 km/h 3.4 km/h 74 % 0 mm
07:12 2.6 °C -1.9 °C 1013.4 hPa Calm     72 % 0 mm
08:12 2.8 °C -1.9 °C 1013.4 hPa Calm   4.2 km/h 71 % 0 mm
09:12 4.9 °C -0.9 °C 1013.4 hPa Calm     66 % 0 mm
10:12 5.8 °C -0.1 °C 1013.1 hPa NNW 6.4 km/h 6.4 km/h 66 % 0 mm
11:12 7.8 °C 1.2 °C 1012.8 hPa ESE 12.2 km/h 12.2 km/h 63 % 0 mm
12:12 8.9 °C 1.3 °C 1012.8 hPa ESE 9.8 km/h 9.8 km/h 59 % 0 mm
13:12 9.2 °C 0.8 °C 1012.1 hPa West 4.7 km/h 4.7 km/h 56 % 0 mm
14:12 8.8 °C 1.0 °C 1011.1 hPa Calm   8.9 km/h 58 % 0 mm
15:12 8.9 °C 1.1 °C 1010.4 hPa NW 23.8 km/h 25.4 km/h 58 % 0 mm
16:12 8.1 °C 0.6 °C 1010.0 hPa NW 27.2 km/h 27.2 km/h 59 % 0 mm
17:12 7.3 °C 0.3 °C 1010.0 hPa NNW 16.9 km/h 23.8 km/h 61 % 0 mm
18:12 6.1 °C -0.4 °C 1010.0 hPa NW 4.2 km/h 16.9 km/h 63 % 0 mm
19:12 5.7 °C -0.6 °C 1010.0 hPa WNW 11.6 km/h 16.3 km/h 64 % 0 mm
20:12 5.4 °C -0.7 °C 1010.4 hPa WNW 16.9 km/h 16.9 km/h 65 % 0 mm
21:12 5.0 °C -0.8 °C 1010.4 hPa Calm     66 % 0 mm
22:12 5.1 °C -0.6 °C 1010.0 hPa Calm   1.8 km/h 67 % 0 mm
23:12 5.8 °C -0.3 °C 1009.7 hPa North 3.4 km/h 3.4 km/h 65 % 0 mm
Observations météo à CASSIS
WU-History script by Weather Underground - 1 mb